Time;durP1;ratioP1;P1;durP2;ratioP2;P2;SDS_P1;SDS_P2;PMS_P1;PMS_P2;Temp;Humidity;BMP_temperature;BMP_pressure;BME280_temperature;BME280_humidity;BME280_pressure;Samples;Min_cycle;Max_cycle;Signal;HPM_P1;HPM_P2
2022/09/29 00:01:59;;;;;;;13.50;10.40;;;;;;;17.38;49.52;98278.09;4156893;28;20262;-34
2022/09/29 00:04:00;;;;;;;12.60;10.80;;;;;;;16.99;50.60;98323.47;4153110;28;20264;-34
2022/09/29 00:06:02;;;;;;;13.17;10.00;;;;;;;16.62;50.35;98370.19;4154082;28;21145;-32
2022/09/29 00:08:04;;;;;;;15.17;10.67;;;;;;;17.42;49.53;98277.38;4154144;28;20236;-33
2022/09/29 00:10:06;;;;;;;16.90;10.20;;;;;;;16.66;50.55;98371.34;4153832;28;20281;-35
2022/09/29 00:12:07;;;;;;;14.17;10.30;;;;;;;16.14;51.85;98395.25;4157956;28;20262;-33
2022/09/29 00:14:09;;;;;;;15.63;11.03;;;;;;;17.45;49.65;98244.66;4156142;28;20821;-33
2022/09/29 00:16:11;;;;;;;14.73;9.57;;;;;;;16.90;50.22;98344.50;4154250;28;20249;-32
2022/09/29 00:18:13;;;;;;;13.33;10.70;;;;;;;16.70;51.41;98283.97;4158646;28;20313;-35
2022/09/29 00:20:15;;;;;;;13.83;11.23;;;;;;;16.77;51.11;98293.75;4157121;28;20237;-32
2022/09/29 00:22:17;;;;;;;15.00;10.97;;;;;;;16.46;51.24;98318.00;4152563;28;20319;-33
2022/09/29 00:24:19;;;;;;;12.80;10.97;;;;;;;16.25;51.90;98350.72;4158155;28;20260;-32
2022/09/29 00:26:23;;;;;;;14.90;10.23;;;;;;;17.20;50.34;98236.91;4152982;28;20259;-34
2022/09/29 00:28:25;;;;;;;16.07;10.97;;;;;;;17.18;50.16;98260.50;4154809;28;20323;-37
2022/09/29 00:30:27;;;;;;;12.63;10.37;;;;;;;16.98;50.65;98271.66;4153123;28;20673;-32
2022/09/29 00:32:28;;;;;;;12.00;9.87;;;;;;;16.82;51.07;98289.31;4163097;28;20363;-36
2022/09/29 00:34:30;;;;;;;13.17;10.17;;;;;;;16.57;51.34;98332.50;4155935;28;20287;-32
2022/09/29 00:36:31;;;;;;;14.40;9.90;;;;;;;17.33;49.77;98261.88;4157121;28;20257;-36
2022/09/29 00:38:34;;;;;;;12.27;9.27;;;;;;;17.07;50.28;98282.84;4156952;28;20249;-33
2022/09/29 00:40:35;;;;;;;13.40;9.67;;;;;;;17.62;49.00;98219.72;4156556;28;20260;-33
2022/09/29 00:42:37;;;;;;;13.57;9.53;;;;;;;17.76;48.72;98225.56;4151126;28;20243;-35
2022/09/29 00:45:03;;;;;;;13.47;9.53;;;;;;;17.74;49.22;98246.50;4153500;28;20740;-33
2022/09/29 00:47:05;;;;;;;11.60;8.90;;;;;;;17.56;49.47;98252.91;4154042;28;20323;-35
2022/09/29 00:49:13;;;;;;;12.00;9.33;;;;;;;17.16;50.04;98310.97;4150318;28;20269;-34
2022/09/29 00:51:18;;;;;;;11.23;9.53;;;;;;;18.04;48.74;98211.25;4154004;28;20264;-33
2022/09/29 00:53:22;;;;;;;11.50;9.40;;;;;;;18.26;47.61;98219.41;4153105;28;20326;-33
2022/09/29 00:55:38;;;;;;;12.83;10.03;;;;;;;18.35;47.41;98227.88;4153533;28;20320;-33
2022/09/29 00:57:45;;;;;;;14.23;9.87;;;;;;;18.02;47.58;98281.41;4156401;28;20255;-33
2022/09/29 00:59:59;;;;;;;13.07;10.53;;;;;;;18.11;48.09;98275.66;4149483;28;20302;-33
2022/09/29 01:02:00;;;;;;;12.20;9.97;;;;;;;17.62;48.71;98324.53;4149280;28;20232;-34
2022/09/29 01:04:13;;;;;;;11.70;9.53;;;;;;;17.96;48.22;98271.63;4153342;28;20338;-33
2022/09/29 01:06:36;;;;;;;13.87;10.07;;;;;;;18.02;47.78;98281.41;4149272;28;20248;-33
2022/09/29 01:08:46;;;;;;;10.97;9.00;;;;;;;18.14;47.77;98283.25;4155061;28;20411;-34
2022/09/29 01:10:50;;;;;;;12.33;9.03;;;;;;;17.26;49.15;98375.66;4152531;28;20317;-33
2022/09/29 01:12:52;;;;;;;11.53;9.67;;;;;;;17.45;49.18;98338.72;4151529;28;20255;-33
2022/09/29 01:14:54;;;;;;;12.67;10.80;;;;;;;17.13;49.63;98372.38;4155561;28;20315;-33
2022/09/29 01:16:55;;;;;;;14.10;10.53;;;;;;;17.41;49.27;98313.38;4155753;28;20260;-32
2022/09/29 01:18:59;;;;;;;13.20;10.57;;;;;;;17.61;48.78;98304.88;4158574;28;20901;-33
2022/09/29 01:21:51;;;;;;;14.30;10.40;;;;;;;17.53;49.57;98307.13;4156126;28;20324;-35
2022/09/29 01:24:14;;;;;;;14.90;10.87;;;;;;;16.81;50.54;98373.56;4125222;28;20243;-33
2022/09/29 01:26:46;;;;;;;16.13;11.07;;;;;;;16.69;50.79;98378.13;4147970;28;20260;-32
2022/09/29 01:29:27;;;;;;;14.93;11.30;;;;;;;17.53;49.86;98277.56;4151402;28;20262;-34
2022/09/29 01:32:01;;;;;;;14.77;11.33;;;;;;;17.61;48.91;98293.31;4134047;28;20611;-35
2022/09/29 01:34:12;;;;;;;15.33;11.20;;;;;;;18.37;47.87;98209.59;4148131;28;20328;-35
2022/09/29 01:36:28;;;;;;;15.27;11.83;;;;;;;17.94;48.81;98273.75;4143593;28;20256;-33
2022/09/29 01:39:04;;;;;;;17.83;12.03;;;;;;;17.41;49.89;98331.34;4153935;28;20332;-33
2022/09/29 01:41:14;;;;;;;20.03;12.07;;;;;;;17.80;49.42;98273.25;4154893;28;20797;-33
2022/09/29 01:43:17;;;;;;;18.60;13.10;;;;;;;17.12;50.14;98350.09;4156743;28;20292;-35
2022/09/29 01:45:35;;;;;;;17.03;12.67;;;;;;;17.27;50.08;98334.28;4157635;28;20248;-33
2022/09/29 01:47:51;;;;;;;17.40;12.90;;;;;;;17.67;49.54;98277.03;4155546;28;20605;-33
2022/09/29 01:49:59;;;;;;;15.80;12.33;;;;;;;17.68;49.45;98277.84;4151601;28;20861;-33
2022/09/29 01:52:07;;;;;;;17.90;13.60;;;;;;;17.47;50.19;98303.53;4156862;28;20224;-33
2022/09/29 01:54:16;;;;;;;16.07;12.47;;;;;;;17.56;49.49;98290.53;4156634;28;20344;-37
2022/09/29 01:56:27;;;;;;;19.07;13.83;;;;;;;17.11;50.29;98348.47;4154789;28;20570;-33
2022/09/29 01:58:39;;;;;;;26.90;14.63;;;;;;;17.57;49.79;98292.19;4156259;28;20247;-32
2022/09/29 02:00:48;;;;;;;22.97;14.63;;;;;;;17.68;49.58;98280.53;4154631;28;20259;-33
2022/09/29 02:02:52;;;;;;;23.80;14.17;;;;;;;17.20;50.55;98330.13;4158098;28;20311;-33
2022/09/29 02:05:00;;;;;;;21.77;14.17;;;;;;;17.61;49.57;98290.63;4148763;28;20264;-35
2022/09/29 02:07:07;;;;;;;21.63;14.27;;;;;;;17.44;49.18;98317.44;4149624;28;20635;-35
2022/09/29 02:09:14;;;;;;;21.33;12.67;;;;;;;17.67;49.34;98295.84;4150458;28;20262;-33
2022/09/29 02:11:16;;;;;;;22.00;14.37;;;;;;;17.78;48.52;98286.09;4153599;28;20232;-32
2022/09/29 02:13:20;;;;;;;20.00;13.37;;;;;;;17.08;50.15;98346.25;4151927;28;20231;-34
2022/09/29 02:15:27;;;;;;;19.40;12.77;;;;;;;17.25;49.85;98324.84;4151856;28;20286;-33
2022/09/29 02:17:33;;;;;;;19.03;13.27;;;;;;;17.76;48.87;98260.53;4154697;28;20259;-32
2022/09/29 02:19:39;;;;;;;16.33;12.53;;;;;;;17.98;48.44;98234.53;4155590;28;20233;-34
2022/09/29 02:21:42;;;;;;;15.53;11.70;;;;;;;18.09;47.72;98256.25;4157479;28;22640;-32
2022/09/29 02:23:44;;;;;;;13.77;11.77;;;;;;;17.81;48.96;98287.50;4154255;28;20264;-32
2022/09/29 02:25:49;;;;;;;15.10;11.53;;;;;;;17.91;47.99;98279.59;4153563;28;20275;-35
2022/09/29 02:27:50;;;;;;;17.37;13.47;;;;;;;18.09;47.88;98264.31;4157662;28;20312;-32
2022/09/29 02:29:53;;;;;;;15.97;12.50;;;;;;;17.98;48.42;98285.63;4157183;28;20810;-32
2022/09/29 02:31:58;;;;;;;17.20;12.77;;;;;;;18.13;47.81;98273.53;4157811;28;20259;-32
2022/09/29 02:34:01;;;;;;;16.23;11.63;;;;;;;17.56;48.79;98339.72;4151072;28;20711;-33
2022/09/29 02:36:15;;;;;;;13.87;11.20;;;;;;;17.09;49.88;98378.25;4152029;28;20256;-32
2022/09/29 02:38:34;;;;;;;13.77;10.10;;;;;;;17.42;49.40;98330.31;4151631;28;20312;-37
2022/09/29 02:40:56;;;;;;;13.23;10.20;;;;;;;17.72;48.86;98302.41;4152696;28;20264;-32
2022/09/29 02:43:06;;;;;;;13.37;10.57;;;;;;;17.17;49.57;98360.94;4154370;28;20257;-33
2022/09/29 02:45:36;;;;;;;13.60;11.07;;;;;;;16.92;49.73;98378.13;4148572;28;20533;-30
2022/09/29 02:48:07;;;;;;;13.53;10.37;;;;;;;17.08;49.46;98346.25;4150674;28;20240;-30
2022/09/29 02:50:51;;;;;;;12.43;10.67;;;;;;;16.80;49.98;98382.66;4143925;28;20225;-32
2022/09/29 02:52:53;;;;;;;12.37;10.23;;;;;;;16.85;50.13;98357.81;4152492;28;20687;-31
2022/09/29 02:55:08;;;;;;;14.60;11.37;;;;;;;16.73;50.55;98358.63;4150460;28;20316;-31
2022/09/29 02:57:23;;;;;;;15.97;10.50;;;;;;;16.77;50.28;98358.97;4156102;28;20707;-31
2022/09/29 02:59:39;;;;;;;16.47;10.90;;;;;;;17.93;47.84;98245.22;4155194;28;20258;-31
2022/09/29 03:01:52;;;;;;;14.23;10.30;;;;;;;17.20;48.52;98352.41;4155306;28;20264;-33
2022/09/29 03:03:53;;;;;;;14.87;10.63;;;;;;;16.96;49.26;98375.81;4154489;28;20265;-33
2022/09/29 03:05:55;;;;;;;12.50;10.30;;;;;;;16.67;49.80;98388.25;4152791;28;20246;-31
2022/09/29 03:07:57;;;;;;;24.97;12.50;;;;;;;16.98;49.17;98351.41;4150207;28;20291;-32
2022/09/29 03:09:59;;;;;;;22.17;12.37;;;;;;;17.58;48.34;98280.34;4150835;28;20225;-35
2022/09/29 03:12:01;;;;;;;74.90;14.10;;;;;;;18.06;47.07;98248.66;4150579;28;20268;-32
2022/09/29 03:14:03;;;;;;;17.00;11.57;;;;;;;18.28;46.24;98241.47;4156927;28;20334;-34
2022/09/29 03:16:04;;;;;;;17.83;11.60;;;;;;;17.67;47.05;98336.19;4155009;28;20343;-31
2022/09/29 03:18:07;;;;;;;28.27;12.23;;;;;;;16.92;48.91;98396.09;4156032;28;20315;-33
2022/09/29 03:20:10;;;;;;;37.30;12.03;;;;;;;16.44;49.89;98416.69;4155901;28;20315;-35
2022/09/29 03:22:12;;;;;;;24.50;11.77;;;;;;;16.73;50.43;98347.91;4154805;28;20239;-31
2022/09/29 03:24:14;;;;;;;21.40;11.43;;;;;;;17.10;48.92;98323.47;4153026;28;20322;-33
2022/09/29 03:26:16;;;;;;;39.33;10.33;;;;;;;16.64;49.77;98381.50;4154456;28;20239;-33
2022/09/29 03:28:18;;;;;;;22.57;10.60;;;;;;;16.22;51.11;98400.28;4153830;28;20247;-32
2022/09/29 03:30:21;;;;;;;34.17;11.70;;;;;;;17.33;48.94;98273.47;4152602;28;20256;-33
2022/09/29 03:32:23;;;;;;;31.73;10.57;;;;;;;16.34;50.65;98398.44;4151603;28;20240;-35
2022/09/29 03:34:25;;;;;;;28.23;10.60;;;;;;;16.43;50.85;98368.63;4150992;28;20283;-31
2022/09/29 03:36:27;;;;;;;18.03;9.93;;;;;;;16.80;50.34;98317.44;4150968;28;20240;-32
2022/09/29 03:38:28;;;;;;;14.17;9.57;;;;;;;16.34;50.85;98360.09;4146355;28;20242;-33
2022/09/29 03:40:30;;;;;;;18.73;9.67;;;;;;;16.76;50.20;98311.72;4156255;28;20279;-32
2022/09/29 03:42:32;;;;;;;13.03;9.87;;;;;;;17.00;49.71;98288.34;4148136;28;20229;-31
2022/09/29 03:44:33;;;;;;;53.70;10.97;;;;;;;16.77;50.08;98321.41;4156476;28;20303;-31
2022/09/29 03:46:35;;;;;;;51.27;11.63;;;;;;;17.60;48.56;98233.38;4153937;28;20319;-32
2022/09/29 03:48:38;;;;;;;55.37;11.97;;;;;;;18.00;47.37;98210.94;4151923;28;20335;-31
2022/09/29 03:50:39;;;;;;;57.07;12.70;;;;;;;18.16;46.93;98228.13;4152992;28;20268;-31
2022/09/29 03:52:41;;;;;;;61.23;12.63;;;;;;;18.24;46.45;98239.53;4156761;28;20237;-33
2022/09/29 03:54:42;;;;;;;62.17;13.53;;;;;;;17.76;47.69;98309.72;4154715;28;20259;-32
2022/09/29 03:56:44;;;;;;;45.43;12.27;;;;;;;17.57;48.15;98325.22;4157042;28;20606;-31
2022/09/29 03:58:46;;;;;;;29.13;12.33;;;;;;;16.91;49.46;98387.22;4158683;28;20256;-31
2022/09/29 04:00:50;;;;;;;25.13;11.30;;;;;;;17.15;49.41;98349.63;4154260;28;20326;-31
2022/09/29 04:02:55;;;;;;;34.13;12.33;;;;;;;17.43;48.90;98310.44;4157003;28;20256;-35
2022/09/29 04:04:57;;;;;;;29.47;13.07;;;;;;;17.00;49.26;98366.22;4157880;28;20494;-31
2022/09/29 04:06:58;;;;;;;27.37;12.37;;;;;;;17.00;49.88;98350.09;4156887;28;20266;-31
2022/09/29 04:09:00;;;;;;;42.43;13.87;;;;;;;16.09;51.12;98398.63;4154916;28;20700;-32
2022/09/29 04:11:03;;;;;;;33.83;12.17;;;;;;;16.63;50.56;98352.22;4151288;28;20269;-34
2022/09/29 04:13:06;;;;;;;28.07;11.73;;;;;;;17.09;50.12;98286.09;4149620;28;20268;-32
2022/09/29 04:15:08;;;;;;;32.47;11.10;;;;;;;16.62;50.01;98354.09;4155172;28;20757;-32
2022/09/29 04:17:09;;;;;;;36.80;10.90;;;;;;;16.27;50.65;98372.78;4154122;28;20271;-32
2022/09/29 04:19:11;;;;;;;30.27;9.23;;;;;;;15.43;52.53;98410.97;4157371;28;20738;-32
2022/09/29 04:21:13;;;;;;;26.83;9.77;;;;;;;15.87;52.16;98341.22;4158562;28;20335;-34
2022/09/29 04:23:14;;;;;;;23.00;10.27;;;;;;;16.95;50.21;98258.69;4156046;28;20295;-32
2022/09/29 04:25:16;;;;;;;28.57;9.93;;;;;;;16.82;49.94;98307.28;4151150;28;20316;-35
2022/09/29 04:27:18;;;;;;;25.03;9.57;;;;;;;16.67;50.08;98340.78;4156209;28;20272;-32
2022/09/29 04:29:19;;;;;;;28.87;9.60;;;;;;;17.37;48.91;98242.38;4153089;28;20245;-33
2022/09/29 04:31:21;;;;;;;24.10;9.67;;;;;;;17.10;49.00;98301.16;4151419;28;20229;-33
2022/09/29 04:33:23;;;;;;;33.87;10.00;;;;;;;16.99;49.42;98326.16;4148065;28;20236;-32
2022/09/29 04:35:24;;;;;;;21.97;9.27;;;;;;;17.15;49.15;98303.97;4150332;28;20252;-33
2022/09/29 04:37:27;;;;;;;15.40;8.90;;;;;;;14.78;52.92;98446.19;4155201;28;20249;-32
2022/09/29 04:39:28;;;;;;;20.37;8.83;;;;;;;15.86;52.22;98340.41;4154219;28;20260;-33
2022/09/29 04:41:33;;;;;;;22.60;9.00;;;;;;;16.66;50.15;98290.03;4153874;28;20259;-32
2022/09/29 04:43:35;;;;;;;22.17;10.03;;;;;;;16.22;51.18;98351.22;4154122;28;20271;-32
2022/09/29 04:45:36;;;;;;;28.20;13.90;;;;;;;16.24;50.87;98341.88;4153088;28;20229;-35
2022/09/29 04:47:38;;;;;;;32.20;14.47;;;;;;;16.54;50.83;98292.72;4153434;28;20233;-33
2022/09/29 04:49:40;;;;;;;32.13;13.50;;;;;;;16.94;49.62;98265.16;4149830;28;20251;-34
2022/09/29 04:51:42;;;;;;;27.63;12.60;;;;;;;16.15;51.13;98356.69;4158434;28;20315;-32
2022/09/29 04:53:43;;;;;;;54.53;21.13;;;;;;;17.29;48.98;98254.31;4155628;28;20292;-32
2022/09/29 04:55:45;;;;;;;53.50;20.30;;;;;;;17.27;49.06;98264.44;4153211;28;20320;-34
2022/09/29 04:57:47;;;;;;;42.57;15.67;;;;;;;17.61;48.13;98243.06;4156085;28;20805;-31
2022/09/29 05:02:18;;;;;;;38.70;13.70;;;;;;;14.60;56.07;98273.88;4134868;28;20584;-66
2022/09/29 05:04:20;;;;;;;67.43;14.77;;;;;;;15.30;54.48;98235.19;4126037;28;20246;-66
2022/09/29 05:06:21;;;;;;;47.77;15.47;;;;;;;15.51;53.18;98273.25;4127517;28;20253;-66
2022/09/29 05:08:23;;;;;;;45.73;15.03;;;;;;;16.03;52.24;98240.53;4122098;28;20713;-66
2022/09/29 05:10:25;;;;;;;39.60;14.63;;;;;;;16.27;51.47;98244.06;4123446;28;20608;-64
2022/09/29 05:12:26;;;;;;;72.87;15.20;;;;;;;16.14;51.76;98298.72;4128256;28;20244;-66
2022/09/29 05:14:28;;;;;;;35.30;12.93;;;;;;;15.99;52.39;98299.97;4126281;28;20319;-64
2022/09/29 05:16:30;;;;;;;43.37;13.20;;;;;;;16.06;52.50;98280.28;4122717;28;20704;-63
2022/09/29 05:18:32;;;;;;;20.93;12.43;;;;;;;15.44;53.14;98364.41;4124775;28;20238;-64
2022/09/29 05:20:34;;;;;;;26.23;12.57;;;;;;;15.97;52.85;98288.66;4122183;28;20253;-64
2022/09/29 05:22:47;;;;;;;35.97;12.50;;;;;;;16.10;52.43;98281.47;4122966;28;21563;-63
2022/09/29 05:24:51;;;;;;;48.13;13.03;;;;;;;14.75;54.36;98415.34;4121656;28;20271;-66
2022/09/29 05:26:52;;;;;;;27.80;12.47;;;;;;;15.48;54.18;98305.84;4122876;28;20237;-63
2022/09/29 05:28:59;;;;;;;60.90;12.60;;;;;;;16.08;52.28;98254.91;4127785;28;20994;-63
2022/09/29 05:31:06;;;;;;;59.57;12.30;;;;;;;16.06;52.33;98273.06;4123749;28;20238;-64
2022/09/29 05:33:08;;;;;;;42.43;12.87;;;;;;;15.70;53.22;98317.72;4126317;28;20244;-63
2022/09/29 05:35:09;;;;;;;42.60;13.27;;;;;;;16.25;52.01;98248.81;4124647;28;20239;-63
2022/09/29 05:37:11;;;;;;;23.33;12.27;;;;;;;15.85;53.37;98295.06;4120836;28;20322;-63
2022/09/29 05:39:13;;;;;;;31.93;12.40;;;;;;;15.86;52.97;98307.41;4124325;28;20705;-66
2022/09/29 05:41:21;;;;;;;32.80;13.57;;;;;;;15.57;53.36;98336.63;4121755;28;20633;-66
2022/09/29 05:43:22;;;;;;;46.93;13.87;;;;;;;15.07;55.30;98327.75;4121097;28;20236;-64
2022/09/29 05:45:24;;;;;;;47.03;13.07;;;;;;;13.97;56.86;98432.50;4121602;28;20519;-67
2022/09/29 05:47:26;;;;;;;37.03;13.23;;;;;;;13.74;57.88;98419.63;4120755;28;20248;-64
2022/09/29 05:49:29;;;;;;;44.50;12.33;;;;;;;14.07;58.16;98344.69;4122362;28;20352;-64
2022/09/29 05:51:31;;;;;;;28.33;12.73;;;;;;;13.36;58.92;98409.69;4121256;28;20249;-64
2022/09/29 05:53:32;;;;;;;41.97;13.23;;;;;;;12.65;60.49;98427.22;4123944;28;20779;-64
2022/09/29 05:55:37;;;;;;;36.07;12.70;;;;;;;14.00;59.02;98273.59;4128091;28;20244;-64
2022/09/29 05:57:39;;;;;;;33.73;11.50;;;;;;;14.68;56.57;98248.69;4121707;28;20310;-64
2022/09/29 05:59:41;;;;;;;36.60;10.67;;;;;;;15.00;55.83;98222.63;4127064;28;20833;-64
2022/09/29 06:01:42;;;;;;;37.77;11.43;;;;;;;15.13;55.56;98235.00;4124701;28;20234;-64
2022/09/29 06:03:44;;;;;;;21.93;10.97;;;;;;;15.66;53.74;98256.78;4127066;28;20309;-64
2022/09/29 06:05:46;;;;;;;32.43;12.30;;;;;;;16.00;53.51;98239.16;4118816;28;20229;-63
2022/09/29 06:07:48;;;;;;;26.23;13.10;;;;;;;16.26;52.75;98237.88;4122521;28;20254;-64
2022/09/29 06:09:49;;;;;;;34.17;13.00;;;;;;;15.73;53.60;98287.00;4119544;28;20248;-64
2022/09/29 06:11:51;;;;;;;27.07;12.63;;;;;;;16.13;52.96;98264.91;4123500;28;20226;-64
2022/09/29 06:13:53;;;;;;;44.50;12.60;;;;;;;15.57;54.61;98283.03;4117722;28;20261;-64
2022/09/29 06:15:57;;;;;;;57.43;16.13;;;;;;;14.36;56.68;98417.28;4110639;28;20231;-64
2022/09/29 06:18:00;;;;;;;42.10;12.47;;;;;;;14.88;55.74;98366.22;4113913;28;20317;-64
2022/09/29 06:20:03;;;;;;;49.43;15.70;;;;;;;15.06;55.80;98310.03;4109319;28;20723;-64
2022/09/29 06:22:04;;;;;;;38.80;13.37;;;;;;;16.08;53.25;98230.75;4114452;28;20240;-64
2022/09/29 06:24:06;;;;;;;52.50;15.90;;;;;;;16.71;51.48;98233.78;4112259;28;20259;-64
2022/09/29 06:26:13;;;;;;;23.83;14.13;;;;;;;16.96;50.63;98232.66;4118092;28;20325;-64
2022/09/29 06:28:14;;;;;;;45.70;11.73;;;;;;;16.68;51.31;98288.72;4114150;28;20241;-66
2022/09/29 06:30:16;;;;;;;20.23;11.00;;;;;;;16.91;50.68;98292.47;4111648;28;20346;-67
2022/09/29 06:32:18;;;;;;;38.03;10.70;;;;;;;14.54;54.63;98472.69;4118474;28;20236;-66
2022/09/29 06:34:20;;;;;;;35.23;9.87;;;;;;;13.48;58.74;98460.59;4120739;28;20503;-67
2022/09/29 06:38:46;;;;;;;25.20;10.13;;;;;;;15.44;55.38;98317.00;4128261;28;20225;-67
2022/09/29 06:40:48;;;;;;;15.93;9.33;;;;;;;16.34;52.39;98288.47;4139974;23;20240;-34
2022/09/29 06:42:50;;;;;;;28.70;12.07;;;;;;;16.12;52.92;98328.44;4128353;28;20701;-33
2022/09/29 06:44:52;;;;;;;33.27;11.73;;;;;;;14.92;55.78;98398.72;4128584;28;20257;-34
2022/09/29 06:46:54;;;;;;;27.57;15.67;;;;;;;16.26;53.09;98283.44;4130203;28;20320;-37
2022/09/29 06:48:56;;;;;;;21.53;12.70;;;;;;;16.38;52.58;98288.81;4121909;28;20342;-34
2022/09/29 06:50:59;;;;;;;30.63;13.03;;;;;;;16.51;51.73;98296.69;4112949;28;20269;-32
2022/09/29 06:53:10;;;;;;;27.07;11.67;;;;;;;16.40;52.33;98321.63;4107671;28;20234;-34
2022/09/29 06:55:12;;;;;;;25.90;12.53;;;;;;;15.29;55.06;98393.41;4111769;28;20238;-32
2022/09/29 06:57:14;;;;;;;27.67;12.03;;;;;;;15.00;56.14;98377.03;4112071;28;20261;-33
2022/09/29 06:59:16;;;;;;;32.07;12.50;;;;;;;15.75;54.71;98299.09;4113798;28;20254;-33
2022/09/29 07:01:18;;;;;;;39.83;11.47;;;;;;;15.05;54.75;98423.53;4112492;28;20746;-33
2022/09/29 07:03:20;;;;;;;51.97;11.80;;;;;;;15.71;54.93;98311.31;4113463;28;20279;-32
2022/09/29 07:05:22;;;;;;;22.93;12.83;;;;;;;16.22;53.47;98281.50;4107560;28;20321;-34
2022/09/29 07:07:24;;;;;;;32.93;11.90;;;;;;;16.29;53.11;98291.03;4110890;28;20714;-33
2022/09/29 07:09:25;;;;;;;22.13;11.93;;;;;;;16.68;52.42;98271.81;4109363;28;20258;-32
2022/09/29 07:11:27;;;;;;;29.77;12.13;;;;;;;16.95;51.90;98276.69;4113062;28;20226;-34
2022/09/29 07:13:29;;;;;;;16.87;12.10;;;;;;;17.33;51.14;98261.88;4112108;28;20269;-34
2022/09/29 07:15:31;;;;;;;22.50;12.50;;;;;;;16.82;51.85;98326.91;4113264;28;20280;-33
2022/09/29 07:17:33;;;;;;;22.37;11.83;;;;;;;16.50;52.93;98350.56;4111535;28;20246;-32
2022/09/29 07:19:34;;;;;;;22.13;13.67;;;;;;;16.66;52.33;98316.88;4116107;28;20273;-32
2022/09/29 07:21:36;;;;;;;26.03;14.37;;;;;;;17.08;51.54;98287.16;4112213;28;20333;-32
2022/09/29 07:23:38;;;;;;;43.90;15.97;;;;;;;16.98;51.83;98308.44;4112011;28;20317;-32
2022/09/29 07:25:40;;;;;;;32.93;16.10;;;;;;;16.89;51.74;98338.34;4107797;28;20375;-31
2022/09/29 07:27:52;;;;;;;26.20;14.97;;;;;;;17.31;51.01;98306.97;4110981;28;20234;-33
2022/09/29 07:29:54;;;;;;;43.67;16.53;;;;;;;17.46;50.50;98305.44;4113898;28;20669;-33
2022/09/29 07:32:04;;;;;;;30.53;16.13;;;;;;;16.73;52.44;98373.94;4126670;28;20299;-35
2022/09/29 07:34:07;;;;;;;28.33;16.73;;;;;;;17.28;51.64;98317.16;4124509;28;20226;-35
2022/09/29 07:36:09;;;;;;;31.90;15.80;;;;;;;17.17;51.80;98341.31;4124754;28;20273;-35
2022/09/29 07:38:11;;;;;;;26.07;15.60;;;;;;;17.21;51.53;98335.25;4122920;28;20672;-35
2022/09/29 07:40:13;;;;;;;19.57;14.40;;;;;;;17.24;51.17;98345.50;4125355;28;20237;-32
2022/09/29 07:42:16;;;;;;;20.30;14.20;;;;;;;17.49;51.03;98330.97;4119171;28;20261;-34
2022/09/29 07:44:18;;;;;;;18.23;13.90;;;;;;;17.59;50.73;98325.81;4111003;28;20312;-32
2022/09/29 07:46:20;;;;;;;19.07;12.77;;;;;;;17.57;50.88;98338.66;4111867;28;20297;-34
2022/09/29 07:48:22;;;;;;;16.83;12.97;;;;;;;17.53;51.18;98340.22;4112181;28;20330;-34
2022/09/29 07:50:31;;;;;;;17.27;12.93;;;;;;;18.07;50.09;98306.78;4114775;28;20253;-31
2022/09/29 07:52:32;;;;;;;15.30;12.00;;;;;;;17.69;50.67;98341.31;4110139;28;20707;-32
2022/09/29 07:54:34;;;;;;;16.23;11.60;;;;;;;17.18;51.84;98404.75;4109208;28;20269;-31
2022/09/29 07:56:36;;;;;;;15.30;11.97;;;;;;;17.16;52.21;98410.34;4107322;28;20258;-32
2022/09/29 07:58:38;;;;;;;16.03;12.00;;;;;;;17.65;51.48;98349.03;4109296;28;20270;-31
2022/09/29 08:00:40;;;;;;;15.53;11.50;;;;;;;17.61;51.32;98355.94;4109147;28;20709;-31
2022/09/29 08:02:42;;;;;;;16.27;12.33;;;;;;;18.00;50.51;98315.81;4110937;28;20261;-32
2022/09/29 08:04:44;;;;;;;17.40;11.50;;;;;;;18.05;49.75;98336.56;4108589;28;20318;-31
2022/09/29 08:06:46;;;;;;;17.03;12.63;;;;;;;17.93;50.17;98366.22;4112741;28;20602;-31
2022/09/29 08:08:48;;;;;;;17.63;12.77;;;;;;;17.80;51.02;98364.66;4113741;28;20527;-32
2022/09/29 08:11:10;;;;;;;15.33;12.43;;;;;;;17.80;50.79;98364.66;4104312;28;20324;-33
2022/09/29 08:13:20;;;;;;;18.60;12.90;;;;;;;16.22;54.25;98488.00;4110816;28;20272;-33
2022/09/29 08:15:22;;;;;;;16.80;13.03;;;;;;;17.07;53.04;98388.38;4107153;28;20350;-32
2022/09/29 08:17:24;;;;;;;18.33;15.53;;;;;;;17.61;51.73;98369.38;4108696;28;20257;-34
2022/09/29 08:19:27;;;;;;;17.70;13.77;;;;;;;17.54;51.41;98382.16;4113373;28;20237;-31
2022/09/29 08:21:30;;;;;;;20.20;13.63;;;;;;;17.85;50.61;98351.31;4103288;28;20607;-33
2022/09/29 08:23:39;;;;;;;19.07;14.83;;;;;;;17.31;52.33;98419.81;4104395;28;20301;-32
2022/09/29 08:25:41;;;;;;;20.50;15.03;;;;;;;14.75;57.57;98554.50;4111407;28;20238;-33
2022/09/29 08:27:45;;;;;;;21.70;15.20;;;;;;;16.28;55.62;98374.41;4109443;28;20642;-31
2022/09/29 08:29:57;;;;;;;22.57;14.60;;;;;;;17.37;53.08;98332.91;4110869;28;20244;-34
2022/09/29 08:31:59;;;;;;;19.70;14.10;;;;;;;17.63;52.29;98332.34;4082516;28;20261;-33
2022/09/29 08:34:00;;;;;;;18.50;12.77;;;;;;;16.53;53.91;98473.53;4077332;28;20247;-31
2022/09/29 08:37:16;;;;;;;15.03;12.33;;;;;;;17.26;52.70;98353.31;4105531;28;20297;-32
2022/09/29 18:09:17;;;;;;;2.80;2.60;;;;;;;18.09;48.52;98592.47;4171719;28;20224;-31
2022/09/29 18:11:21;;;;;;;14.03;3.40;;;;;;;18.26;48.27;98604.13;4172612;28;20239;-32
2022/09/29 18:13:30;;;;;;;2.30;2.10;;;;;;;18.32;48.01;98618.50;4170466;28;20346;-32
2022/09/29 18:15:32;;;;;;;2.33;2.07;;;;;;;18.14;48.34;98654.47;4172065;28;20238;-32
2022/09/29 18:17:33;;;;;;;2.43;2.20;;;;;;;17.75;49.02;98679.09;4171443;28;21975;-32
2022/09/29 18:19:38;;;;;;;2.77;2.30;;;;;;;18.02;48.65;98649.06;4174014;28;20277;-31
2022/09/29 18:21:40;;;;;;;4.97;2.43;;;;;;;16.97;50.15;98752.53;4173532;28;20723;-32
2022/09/29 18:23:43;;;;;;;2.40;2.20;;;;;;;17.34;50.06;98688.00;4170945;28;20264;-32
2022/09/29 18:25:46;;;;;;;3.23;2.47;;;;;;;17.74;49.47;98641.69;4173540;28;20578;-31
2022/09/29 18:27:49;;;;;;;2.33;2.10;;;;;;;18.31;48.44;98606.94;4172140;28;20247;-32
2022/09/29 18:29:52;;;;;;;2.00;1.90;;;;;;;17.74;49.08;98684.72;4175535;28;20227;-32
2022/09/29 18:31:54;;;;;;;2.40;2.17;;;;;;;17.53;49.18;98696.81;4172470;28;20266;-31
2022/09/29 18:33:55;;;;;;;1.90;1.80;;;;;;;17.84;48.51;98664.25;4171513;28;20262;-31
2022/09/29 18:35:59;;;;;;;1.83;1.73;;;;;;;18.13;48.19;98642.88;4172792;28;20262;-32
2022/09/29 18:38:01;;;;;;;2.97;1.80;;;;;;;18.21;48.13;98637.13;4173986;28;20251;-31
2022/09/29 18:40:03;;;;;;;2.40;1.80;;;;;;;17.70;48.31;98718.47;4171994;28;20314;-31
2022/09/29 18:42:05;;;;;;;2.20;2.10;;;;;;;18.04;47.87;98685.41;4172901;28;20251;-32
2022/09/29 18:44:15;;;;;;;1.90;1.80;;;;;;;18.06;47.72;98690.59;4170548;28;20263;-33
2022/09/29 18:46:16;;;;;;;1.80;1.70;;;;;;;18.26;47.61;98679.47;4172437;28;20239;-31
2022/09/29 18:48:18;;;;;;;1.93;1.83;;;;;;;18.18;47.65;98693.28;4173918;28;20255;-31
2022/09/29 18:50:28;;;;;;;2.20;2.00;;;;;;;18.10;48.14;98701.69;4155709;28;20772;-32
2022/09/29 18:52:30;;;;;;;2.87;2.67;;;;;;;16.55;50.50;98823.78;4173300;28;20330;-32
2022/09/29 18:54:32;;;;;;;2.40;2.30;;;;;;;16.80;50.72;98779.97;4168991;28;20322;-32
2022/09/29 18:56:34;;;;;;;3.03;2.30;;;;;;;17.53;49.45;98707.56;4172428;28;20293;-31
2022/09/29 18:58:36;;;;;;;2.13;2.00;;;;;;;17.85;48.90;98673.13;4174086;28;20263;-31
2022/09/29 19:00:39;;;;;;;3.10;2.30;;;;;;;17.49;49.92;98728.69;4169393;28;20266;-31
2022/09/29 19:02:42;;;;;;;3.10;2.90;;;;;;;18.12;48.69;98689.66;4174180;28;20359;-32
2022/09/29 19:04:44;;;;;;;2.20;2.10;;;;;;;18.60;47.08;98660.81;4172380;28;20240;-31
2022/09/29 19:06:49;;;;;;;2.50;2.30;;;;;;;18.99;46.75;98649.47;4169798;28;20326;-32
2022/09/29 19:08:50;;;;;;;3.43;2.30;;;;;;;18.77;46.84;98688.59;4169843;28;20665;-32
2022/09/29 19:10:57;;;;;;;2.30;2.10;;;;;;;18.70;47.19;98698.69;4168481;28;20291;-33
2022/09/29 19:13:07;;;;;;;2.13;1.93;;;;;;;18.78;46.94;98692.13;4166029;28;20220;-32